createdAt,value
2023-04-09T00:00:29.907Z,82.72
2023-04-09T00:02:57.919Z,82.92
2023-04-09T00:05:27.220Z,83.62
2023-04-09T00:07:55.499Z,82.94
2023-04-09T00:10:23.500Z,83.32
2023-04-09T00:12:51.517Z,83.96
2023-04-09T00:15:30.078Z,84.38
2023-04-09T00:17:58.961Z,84.40
2023-04-09T00:20:28.327Z,83.49
2023-04-09T00:22:56.503Z,84.08
2023-04-09T00:25:24.485Z,83.14
2023-04-09T00:27:52.380Z,82.80
2023-04-09T00:32:48.779Z,82.33
2023-04-09T00:35:17.552Z,82.34
2023-04-09T00:37:46.806Z,81.96
2023-04-09T00:40:15.416Z,82.24
2023-04-09T00:42:43.255Z,82.36
2023-04-09T00:45:11.704Z,82.53
2023-04-09T00:47:39.806Z,82.65
2023-04-09T00:50:08.556Z,82.71
2023-04-09T00:52:36.948Z,83.20
2023-04-09T00:55:07.425Z,83.82
2023-04-09T00:57:35.982Z,83.98
2023-04-09T01:00:04.752Z,84.16
2023-04-09T01:02:32.963Z,84.08
2023-04-09T01:05:01.155Z,83.99
2023-04-09T01:07:42.316Z,84.21
2023-04-09T01:10:22.513Z,84.45
2023-04-09T01:13:05.371Z,84.49
2023-04-09T01:15:39.999Z,84.47
2023-04-09T01:18:12.349Z,84.86
2023-04-09T01:20:43.460Z,84.85
2023-04-09T01:23:20.517Z,84.73
2023-04-09T01:26:05.539Z,85.38
2023-04-09T01:28:40.521Z,85.10
2023-04-09T01:31:13.558Z,84.66
2023-04-09T01:33:43.120Z,84.49
2023-04-09T01:36:12.346Z,84.17
2023-04-09T01:38:43.148Z,84.32
2023-04-09T01:41:15.904Z,83.89
2023-04-09T01:43:46.574Z,84.08
2023-04-09T01:46:16.957Z,83.32
2023-04-09T01:48:45.111Z,83.39
2023-04-09T01:51:14.158Z,83.86
2023-04-09T01:53:42.587Z,84.42
2023-04-09T01:56:11.182Z,84.17
2023-04-09T01:58:39.098Z,84.54
2023-04-09T02:01:13.700Z,83.86
2023-04-09T02:03:48.017Z,84.50
2023-04-09T02:06:27.080Z,84.38
2023-04-09T02:08:55.394Z,84.36
2023-04-09T02:11:25.970Z,84.95
2023-04-09T02:13:56.840Z,85.00
2023-04-09T02:16:28.443Z,83.97
2023-04-09T02:18:57.056Z,84.55
2023-04-09T02:21:27.064Z,84.72
2023-04-09T02:23:55.662Z,84.32
2023-04-09T02:26:24.105Z,84.99
2023-04-09T02:28:52.642Z,84.92
2023-04-09T02:31:20.837Z,84.77
2023-04-09T02:33:50.106Z,84.21
2023-04-09T02:36:17.967Z,83.83
2023-04-09T02:38:45.870Z,83.90
2023-04-09T02:41:14.018Z,83.35
2023-04-09T02:43:41.939Z,83.92
2023-04-09T02:46:14.813Z,83.10
2023-04-09T02:48:42.688Z,82.68
2023-04-09T02:51:11.904Z,82.72
2023-04-09T02:53:41.094Z,82.55
2023-04-09T02:56:08.960Z,82.57
2023-04-09T02:58:36.763Z,82.30
2023-04-09T03:01:05.112Z,82.44
2023-04-09T03:03:33.057Z,82.48
2023-04-09T03:06:00.985Z,83.00
2023-04-09T03:08:30.206Z,82.98
2023-04-09T03:10:58.088Z,82.40
2023-04-09T03:13:25.965Z,83.25
2023-04-09T03:15:54.047Z,83.49
2023-04-09T03:18:22.107Z,82.56
2023-04-09T03:20:49.938Z,83.86
2023-04-09T03:23:18.101Z,84.86
2023-04-09T03:25:50.449Z,84.91
2023-04-09T03:28:18.322Z,85.25
2023-04-09T03:30:46.189Z,85.20
2023-04-09T03:33:14.025Z,84.97
2023-04-09T03:35:43.652Z,84.53
2023-04-09T03:38:11.537Z,84.25
2023-04-09T03:40:39.406Z,84.13
2023-04-09T03:43:08.625Z,83.84
2023-04-09T03:45:36.646Z,83.64
2023-04-09T03:48:04.705Z,82.48
2023-04-09T03:50:32.591Z,81.59
2023-04-09T03:53:00.829Z,81.97
2023-04-09T03:55:28.705Z,82.02
2023-04-09T03:57:56.519Z,81.53
2023-04-09T04:00:25.810Z,81.75
2023-04-09T04:02:53.795Z,82.08
2023-04-09T04:05:24.349Z,81.14
2023-04-09T04:07:52.224Z,82.02
2023-04-09T04:10:20.412Z,81.73
2023-04-09T04:12:48.381Z,81.31
2023-04-09T04:15:16.373Z,79.83
2023-04-09T04:17:45.918Z,80.71
2023-04-09T04:20:14.203Z,81.47
2023-04-09T04:22:42.119Z,82.00
2023-04-09T04:25:10.797Z,83.70
2023-04-09T04:27:38.725Z,85.11
2023-04-09T04:30:08.224Z,84.42
2023-04-09T04:32:36.147Z,85.57
2023-04-09T04:35:05.886Z,85.61
2023-04-09T04:37:33.727Z,86.66
2023-04-09T04:40:02.847Z,87.41
2023-04-09T04:42:30.729Z,86.95
2023-04-09T04:44:58.543Z,87.66
2023-04-09T04:47:33.730Z,88.05
2023-04-09T04:50:01.951Z,87.88
2023-04-09T04:52:31.186Z,88.17
2023-04-09T04:54:59.049Z,88.74
2023-04-09T04:57:26.904Z,88.37
2023-04-09T04:59:54.818Z,88.57
2023-04-09T05:02:22.917Z,88.56
2023-04-09T05:04:50.939Z,87.64
2023-04-09T05:07:18.845Z,87.89
2023-04-09T05:09:48.099Z,86.96
2023-04-09T05:12:17.988Z,86.89
2023-04-09T05:14:46.192Z,86.92
2023-04-09T05:17:14.068Z,87.39
2023-04-09T05:19:41.930Z,86.91
2023-04-09T05:22:09.839Z,86.49
2023-04-09T05:24:37.684Z,86.85
2023-04-09T05:27:06.899Z,86.30
2023-04-09T05:29:34.774Z,86.03
2023-04-09T05:32:02.614Z,85.73
2023-04-09T05:34:30.501Z,85.49
2023-04-09T05:36:58.398Z,85.33
2023-04-09T05:39:26.371Z,85.21
2023-04-09T05:41:54.209Z,84.92
2023-04-09T05:44:23.470Z,84.64
2023-04-09T05:46:51.425Z,83.87
2023-04-09T05:49:19.282Z,84.49
2023-04-09T05:51:47.177Z,84.57
2023-04-09T05:54:15.071Z,84.82
2023-04-09T05:56:44.278Z,84.61
2023-04-09T05:59:12.743Z,83.82
2023-04-09T06:01:41.990Z,83.49
2023-04-09T06:04:10.065Z,83.40
2023-04-09T06:06:39.601Z,83.58
2023-04-09T06:09:07.466Z,83.82
2023-04-09T06:11:35.374Z,83.25
2023-04-09T06:14:03.272Z,82.21
2023-04-09T06:16:31.136Z,82.48
2023-04-09T06:19:00.616Z,82.54
2023-04-09T06:21:28.501Z,82.64
2023-04-09T06:23:56.625Z,81.26
2023-04-09T06:26:24.536Z,80.59
2023-04-09T06:28:52.444Z,80.54
2023-04-09T06:31:20.518Z,80.83
2023-04-09T06:33:48.438Z,80.78
2023-04-09T06:36:17.665Z,81.18
2023-04-09T06:38:45.555Z,79.64
2023-04-09T06:41:14.816Z,80.41
2023-04-09T06:43:42.737Z,79.97
2023-04-09T06:46:10.909Z,79.25
2023-04-09T06:48:38.921Z,79.43
2023-04-09T06:51:08.496Z,79.30
2023-04-09T06:53:40.780Z,76.98
2023-04-09T06:56:08.850Z,77.65
2023-04-09T06:58:39.754Z,76.24
2023-04-09T07:01:07.838Z,75.28
2023-04-09T07:03:36.070Z,76.57
2023-04-09T07:06:04.302Z,77.26
2023-04-09T07:08:32.230Z,76.58
2023-04-09T07:11:01.547Z,75.42
2023-04-09T07:13:29.564Z,74.38
2023-04-09T07:15:57.488Z,74.23
2023-04-09T07:18:25.404Z,73.37
2023-04-09T07:20:53.689Z,72.60
2023-04-09T07:23:22.936Z,73.09
2023-04-09T07:25:50.836Z,71.60
2023-04-09T07:28:20.157Z,71.21
2023-04-09T07:30:48.036Z,70.62
2023-04-09T07:33:15.951Z,70.08
2023-04-09T07:35:43.900Z,70.60
2023-04-09T07:38:11.833Z,69.00
2023-04-09T07:40:39.765Z,69.27
2023-04-09T07:43:07.704Z,67.98
2023-04-09T07:45:37.095Z,68.32
2023-04-09T07:48:05.272Z,67.55
2023-04-09T07:50:33.245Z,67.08
2023-04-09T07:53:01.164Z,66.58
2023-04-09T07:55:29.479Z,66.01
2023-04-09T07:57:57.457Z,65.64
2023-04-09T08:00:25.558Z,66.68
2023-04-09T08:02:55.094Z,65.78
2023-04-09T08:05:23.398Z,65.54
2023-04-09T08:07:52.333Z,65.76
2023-04-09T08:10:20.482Z,64.38
2023-04-09T08:12:49.794Z,64.18
2023-04-09T08:15:17.768Z,63.66
2023-04-09T08:17:45.705Z,63.86
2023-04-09T08:20:16.965Z,62.29
2023-04-09T08:22:45.350Z,61.90
2023-04-09T08:25:13.271Z,60.45
2023-04-09T08:27:41.341Z,59.43
2023-04-09T08:30:10.604Z,58.28
2023-04-09T08:32:38.716Z,57.86
2023-04-09T08:35:12.035Z,58.06
2023-04-09T08:37:41.287Z,57.42
2023-04-09T08:40:11.664Z,57.08
2023-04-09T08:42:46.095Z,57.35
2023-04-09T08:45:14.808Z,57.31
2023-04-09T08:47:46.463Z,55.17
2023-04-09T08:50:15.421Z,56.42
2023-04-09T08:52:48.076Z,55.19
2023-04-09T08:55:16.023Z,55.63
2023-04-09T08:57:44.422Z,55.38
2023-04-09T09:00:13.664Z,54.06
2023-04-09T09:03:03.489Z,55.08
2023-04-09T09:05:39.427Z,54.39
2023-04-09T09:08:10.339Z,55.80
2023-04-09T09:10:39.944Z,55.08
2023-04-09T09:13:22.510Z,52.19
2023-04-09T09:15:55.072Z,52.30
2023-04-09T09:18:39.468Z,51.10
2023-04-09T09:21:14.673Z,52.27
2023-04-09T09:23:44.343Z,51.06
2023-04-09T09:26:14.187Z,50.68
2023-04-09T09:28:42.739Z,50.72
2023-04-09T09:31:11.996Z,50.75
2023-04-09T09:33:40.765Z,50.33
2023-04-09T09:36:09.455Z,50.32
2023-04-09T09:38:55.038Z,50.34
2023-04-09T09:41:23.858Z,49.37
2023-04-09T09:43:52.937Z,49.22
2023-04-09T09:46:22.914Z,48.03
2023-04-09T09:48:51.350Z,49.64
2023-04-09T09:51:23.377Z,46.54
2023-04-09T09:53:56.539Z,46.71
2023-04-09T09:56:32.218Z,45.04
2023-04-09T09:59:08.907Z,47.85
2023-04-09T10:01:37.344Z,44.87
2023-04-09T10:04:08.656Z,46.29
2023-04-09T10:06:38.325Z,47.01
2023-04-09T10:09:08.388Z,46.52
2023-04-09T10:11:38.270Z,47.02
2023-04-09T10:14:06.569Z,43.85
2023-04-09T10:16:35.443Z,46.04
2023-04-09T10:19:04.436Z,45.84
2023-04-09T10:21:44.704Z,46.22
2023-04-09T10:24:14.319Z,43.88
2023-04-09T10:26:44.727Z,43.83
2023-04-09T10:29:15.175Z,46.13
2023-04-09T10:31:53.180Z,44.74
2023-04-09T10:34:24.874Z,43.96
2023-04-09T10:36:56.983Z,43.42
2023-04-09T10:39:29.971Z,42.97
2023-04-09T10:41:59.918Z,43.50
2023-04-09T10:44:31.813Z,45.40
2023-04-09T10:47:00.315Z,42.86
2023-04-09T10:49:28.727Z,44.21
2023-04-09T10:52:04.639Z,43.46
2023-04-09T10:54:45.806Z,42.34
2023-04-09T10:57:22.224Z,43.52
2023-04-09T10:59:52.333Z,42.23
2023-04-09T11:03:07.934Z,45.90
2023-04-09T11:05:38.369Z,44.74
2023-04-09T11:08:09.503Z,47.79
2023-04-09T11:10:41.000Z,44.83
2023-04-09T11:13:12.456Z,48.15
2023-04-09T11:15:40.963Z,47.04
2023-04-09T11:18:09.969Z,46.41
2023-04-09T11:20:38.363Z,46.31
2023-04-09T11:23:06.497Z,46.39
2023-04-09T11:25:35.817Z,46.65
2023-04-09T11:28:06.082Z,47.20
2023-04-09T11:30:35.755Z,45.37
2023-04-09T11:33:03.934Z,47.52
2023-04-09T11:35:34.925Z,46.90
2023-04-09T11:38:06.859Z,46.43
2023-04-09T11:40:35.173Z,46.87
2023-04-09T11:43:03.951Z,47.37
2023-04-09T11:45:33.757Z,46.81
2023-04-09T11:48:03.874Z,47.53
2023-04-09T11:50:33.166Z,47.48
2023-04-09T11:53:01.398Z,48.27
2023-04-09T11:55:30.659Z,49.10
2023-04-09T11:58:01.139Z,47.21
2023-04-09T12:00:30.071Z,47.44
2023-04-09T12:03:04.624Z,47.25
2023-04-09T12:05:35.269Z,48.55
2023-04-09T12:08:06.191Z,46.26
2023-04-09T12:10:36.356Z,45.10
2023-04-09T12:13:07.746Z,45.91
2023-04-09T12:15:37.562Z,47.53
2023-04-09T12:18:10.573Z,47.43
2023-04-09T12:20:40.748Z,47.56
2023-04-09T12:23:10.477Z,48.19
2023-04-09T12:25:40.875Z,48.21
2023-04-09T12:28:10.816Z,47.02
2023-04-09T12:30:38.958Z,47.10
2023-04-09T12:33:10.769Z,47.48
2023-04-09T12:35:39.365Z,47.23
2023-04-09T12:38:07.571Z,47.75
2023-04-09T12:40:36.930Z,45.98
2023-04-09T12:43:07.917Z,48.03
2023-04-09T12:45:35.866Z,45.68
2023-04-09T12:48:03.749Z,45.91
2023-04-09T12:50:33.323Z,44.50
2023-04-09T12:53:01.561Z,44.22
2023-04-09T12:55:29.559Z,45.33
2023-04-09T12:57:57.520Z,41.86
2023-04-09T13:00:30.923Z,44.19
2023-04-09T13:02:59.008Z,43.76
2023-04-09T13:05:27.098Z,44.24
2023-04-09T13:07:56.342Z,43.79
2023-04-09T13:10:26.304Z,43.54
2023-04-09T13:12:54.239Z,42.75
2023-04-09T13:15:22.274Z,43.05
2023-04-09T13:17:50.463Z,42.60
2023-04-09T13:20:18.584Z,43.89
2023-04-09T13:22:48.863Z,44.86
2023-04-09T13:25:18.297Z,43.68
2023-04-09T13:27:46.204Z,41.64
2023-04-09T13:30:14.112Z,42.29
2023-04-09T13:32:42.232Z,44.48
2023-04-09T13:35:16.230Z,44.68
2023-04-09T13:37:44.206Z,44.00
2023-04-09T13:40:12.963Z,44.07
2023-04-09T13:42:42.206Z,43.96
2023-04-09T13:45:10.974Z,45.87
2023-04-09T13:47:38.878Z,44.08
2023-04-09T13:50:13.170Z,42.92
2023-04-09T13:52:41.133Z,42.50
2023-04-09T13:55:12.101Z,43.53
2023-04-09T13:57:40.027Z,42.40
2023-04-09T14:00:10.899Z,43.11
2023-04-09T14:02:38.976Z,43.82
2023-04-09T14:05:07.759Z,46.01
2023-04-09T14:07:35.971Z,43.09
2023-04-09T14:10:03.987Z,44.68
2023-04-09T14:12:31.989Z,45.63
2023-04-09T14:15:02.464Z,42.62
2023-04-09T14:17:31.811Z,44.44
2023-04-09T14:20:00.122Z,42.59
2023-04-09T14:22:30.060Z,41.69
2023-04-09T14:25:01.328Z,39.86
2023-04-09T14:27:29.269Z,41.74
2023-04-09T14:29:57.178Z,39.51
2023-04-09T14:32:25.253Z,40.64
2023-04-09T14:34:57.701Z,41.65
2023-04-09T14:37:28.676Z,43.33
2023-04-09T14:39:56.585Z,43.07
2023-04-09T14:42:24.607Z,42.34
2023-04-09T14:44:52.543Z,42.85
2023-04-09T14:47:20.488Z,43.94
2023-04-09T14:49:54.331Z,44.63
2023-04-09T14:52:23.979Z,43.74
2023-04-09T14:54:54.059Z,44.80
2023-04-09T14:57:21.994Z,44.75
2023-04-09T14:59:49.856Z,45.13
2023-04-09T15:02:24.124Z,45.31
2023-04-09T15:04:52.267Z,46.65
2023-04-09T15:07:20.935Z,45.39
2023-04-09T15:09:51.289Z,45.87
2023-04-09T15:12:19.758Z,43.68
2023-04-09T15:14:47.668Z,43.16
2023-04-09T15:17:15.563Z,41.53
2023-04-09T15:19:49.980Z,40.66
2023-04-09T15:22:17.886Z,40.94
2023-04-09T15:24:46.025Z,39.49
2023-04-09T15:27:16.122Z,37.82
2023-04-09T15:29:44.306Z,40.48
2023-04-09T15:32:12.433Z,39.20
2023-04-09T15:34:40.348Z,40.85
2023-04-09T15:37:08.270Z,42.75
2023-04-09T15:39:36.399Z,43.90
2023-04-09T15:42:09.481Z,44.37
2023-04-09T15:44:40.091Z,43.11
2023-04-09T15:47:08.001Z,42.53
2023-04-09T15:49:36.813Z,40.85
2023-04-09T15:52:05.777Z,39.25
2023-04-09T15:54:33.767Z,39.60
2023-04-09T15:57:01.931Z,40.31
2023-04-09T15:59:32.692Z,39.72
2023-04-09T16:02:02.105Z,38.98
2023-04-09T16:04:33.221Z,40.51
2023-04-09T16:07:02.224Z,39.81
2023-04-09T16:09:30.149Z,39.09
2023-04-09T16:11:58.057Z,41.23
2023-04-09T16:14:25.968Z,41.21
2023-04-09T16:16:53.885Z,44.25
2023-04-09T16:19:24.548Z,45.31
2023-04-09T16:21:52.429Z,45.07
2023-04-09T16:24:20.593Z,45.62
2023-04-09T16:26:48.495Z,46.16
2023-04-09T16:29:17.805Z,44.19
2023-04-09T16:31:46.092Z,44.60
2023-04-09T16:34:14.030Z,44.87
2023-04-09T16:36:44.590Z,44.08
2023-04-09T16:39:12.836Z,43.22
2023-04-09T16:41:44.580Z,41.72
2023-04-09T16:44:12.489Z,42.17
2023-04-09T16:46:44.107Z,42.75
2023-04-09T16:49:14.037Z,43.11
2023-04-09T16:51:43.922Z,41.61
2023-04-09T16:54:13.216Z,41.33
2023-04-09T16:56:41.413Z,40.60
2023-04-09T16:59:09.371Z,41.08
2023-04-09T17:01:37.394Z,40.18
2023-04-09T17:04:11.395Z,42.61
2023-04-09T17:06:39.591Z,41.64
2023-04-09T17:09:08.974Z,42.15
2023-04-09T17:11:38.028Z,42.75
2023-04-09T17:14:06.135Z,43.13
2023-04-09T17:16:34.296Z,43.19
2023-04-09T17:19:03.617Z,44.92
2023-04-09T17:21:38.031Z,45.07
2023-04-09T17:24:06.535Z,44.58
2023-04-09T17:26:35.832Z,46.30
2023-04-09T17:29:03.707Z,45.92
2023-04-09T17:31:31.633Z,47.71
2023-04-09T17:33:59.535Z,47.33
2023-04-09T17:36:27.982Z,47.99
2023-04-09T17:38:56.628Z,48.25
2023-04-09T17:41:27.762Z,48.78
2023-04-09T17:43:57.078Z,49.30
2023-04-09T17:46:27.933Z,49.91
2023-04-09T17:48:55.976Z,50.58
2023-04-09T17:51:23.873Z,51.34
2023-04-09T17:53:54.931Z,50.52
2023-04-09T17:56:23.668Z,50.98
2023-04-09T17:58:51.814Z,51.54
2023-04-09T18:01:24.092Z,52.51
2023-04-09T18:03:55.093Z,53.15
2023-04-09T18:06:23.107Z,52.96
2023-04-09T18:08:52.465Z,53.37
2023-04-09T18:11:21.136Z,54.31
2023-04-09T18:13:49.027Z,54.51
2023-04-09T18:16:17.535Z,54.17
2023-04-09T18:18:47.040Z,54.35
2023-04-09T18:21:16.266Z,54.43
2023-04-09T18:23:44.184Z,54.60
2023-04-09T18:26:12.083Z,54.67
2023-04-09T18:28:40.231Z,54.75
2023-04-09T18:31:08.218Z,54.82
2023-04-09T18:33:36.429Z,55.00
2023-04-09T18:36:06.329Z,54.77
2023-04-09T18:38:34.727Z,55.36
2023-04-09T18:41:02.653Z,56.26
2023-04-09T18:43:31.222Z,56.75
2023-04-09T18:45:59.232Z,57.20
2023-04-09T18:48:27.124Z,57.18
2023-04-09T18:50:55.193Z,57.58
2023-04-09T18:53:25.103Z,56.96
2023-04-09T18:55:53.062Z,57.45
2023-04-09T18:58:21.434Z,58.58
2023-04-09T19:00:51.461Z,59.52
2023-04-09T19:03:20.193Z,60.12
2023-04-09T19:05:48.789Z,60.14
2023-04-09T19:08:16.700Z,59.96
2023-04-09T19:10:47.537Z,60.88
2023-04-09T19:13:15.540Z,61.39
2023-04-09T19:15:43.479Z,61.59
2023-04-09T19:18:11.432Z,61.31
2023-04-09T19:20:39.487Z,61.36
2023-04-09T19:23:07.569Z,60.67
2023-04-09T19:25:36.204Z,60.52
2023-04-09T19:28:05.657Z,61.14
2023-04-09T19:30:33.592Z,60.98
2023-04-09T19:33:01.557Z,60.56
2023-04-09T19:35:29.731Z,60.06
2023-04-09T19:37:57.718Z,60.54
2023-04-09T19:40:25.853Z,60.20
2023-04-09T19:42:53.754Z,60.12
2023-04-09T19:45:23.037Z,60.99
2023-04-09T19:47:51.724Z,61.17
2023-04-09T19:50:20.417Z,61.87
2023-04-09T19:52:48.449Z,62.38
2023-04-09T19:55:16.365Z,62.79
2023-04-09T19:57:46.135Z,62.69
2023-04-09T20:00:16.352Z,63.25
2023-04-09T20:02:45.718Z,62.55
2023-04-09T20:05:14.272Z,62.05
2023-04-09T20:07:43.372Z,62.09
2023-04-09T20:10:11.691Z,62.20
2023-04-09T20:12:39.544Z,61.76
2023-04-09T20:15:09.947Z,62.40
2023-04-09T20:17:38.622Z,62.68
2023-04-09T20:20:10.872Z,62.63
2023-04-09T20:22:43.018Z,63.62
2023-04-09T20:25:11.874Z,64.25
2023-04-09T20:27:39.828Z,64.64
2023-04-09T20:30:08.976Z,65.15
2023-04-09T20:32:37.515Z,65.20
2023-04-09T20:35:08.363Z,65.81
2023-04-09T20:37:36.273Z,64.64
2023-04-09T20:40:04.281Z,65.08
2023-04-09T20:42:32.227Z,65.06
2023-04-09T20:45:01.861Z,64.92
2023-04-09T20:47:30.052Z,65.27
2023-04-09T20:49:59.927Z,65.47
2023-04-09T20:52:29.268Z,66.35
2023-04-09T20:54:58.513Z,67.32
2023-04-09T20:57:27.360Z,67.55
2023-04-09T20:59:56.103Z,67.60
2023-04-09T21:02:24.454Z,67.34
2023-04-09T21:04:52.900Z,68.19
2023-04-09T21:07:21.145Z,67.95
2023-04-09T21:09:51.300Z,68.32
2023-04-09T21:12:21.887Z,68.63
2023-04-09T21:14:52.404Z,68.50
2023-04-09T21:17:21.234Z,68.53
2023-04-09T21:19:49.510Z,68.99
2023-04-09T21:22:17.709Z,69.16
2023-04-09T21:24:46.216Z,69.47
2023-04-09T21:27:16.972Z,69.23
2023-04-09T21:29:45.439Z,69.49
2023-04-09T21:32:13.789Z,69.89
2023-04-09T21:34:42.627Z,69.55
2023-04-09T21:37:11.198Z,70.61
2023-04-09T21:39:39.685Z,70.46
2023-04-09T21:42:08.946Z,69.89
2023-04-09T21:44:39.082Z,70.08
2023-04-09T21:47:09.191Z,70.37
2023-04-09T21:49:40.670Z,70.38
2023-04-09T21:52:15.083Z,70.20
2023-04-09T21:54:44.429Z,69.89
2023-04-09T21:57:13.127Z,69.89
2023-04-09T21:59:43.763Z,69.65
2023-04-09T22:02:12.511Z,70.14
2023-04-09T22:04:42.657Z,70.17
2023-04-09T22:07:12.565Z,70.52
2023-04-09T22:09:40.954Z,70.05
2023-04-09T22:12:09.273Z,69.59
2023-04-09T22:14:38.281Z,68.93
2023-04-09T22:17:09.496Z,68.46
2023-04-09T22:19:37.792Z,68.63
2023-04-09T22:22:06.213Z,68.52
2023-04-09T22:24:34.558Z,68.15
2023-04-09T22:27:03.924Z,67.38
2023-04-09T22:29:33.032Z,67.44
2023-04-09T22:32:02.926Z,67.01
2023-04-09T22:34:33.274Z,67.75
2023-04-09T22:37:02.320Z,67.29
2023-04-09T22:39:31.303Z,67.50
2023-04-09T22:41:59.943Z,67.32
2023-04-09T22:44:28.734Z,68.12
2023-04-09T22:46:57.484Z,68.24
2023-04-09T22:49:26.119Z,68.24
2023-04-09T22:51:56.402Z,68.50
2023-04-09T22:54:25.125Z,68.42
2023-04-09T22:56:53.496Z,69.50
2023-04-09T22:59:25.051Z,69.65
2023-04-09T23:01:56.060Z,69.57
2023-04-09T23:04:25.522Z,69.80
2023-04-09T23:06:57.834Z,69.54
2023-04-09T23:09:26.370Z,69.87
2023-04-09T23:11:54.987Z,69.79
2023-04-09T23:14:24.951Z,70.13
2023-04-09T23:16:53.665Z,69.68
2023-04-09T23:19:22.001Z,70.21
2023-04-09T23:21:50.381Z,70.09
2023-04-09T23:24:20.661Z,69.61
2023-04-09T23:26:49.778Z,69.75
2023-04-09T23:29:18.507Z,70.03
2023-04-09T23:31:47.225Z,70.18
2023-04-09T23:34:15.592Z,69.78
2023-04-09T23:36:45.118Z,69.96
2023-04-09T23:39:13.526Z,70.07
2023-04-09T23:41:43.606Z,69.40
2023-04-09T23:44:11.809Z,69.41
2023-04-09T23:46:43.144Z,69.66
2023-04-09T23:49:11.569Z,69.65
2023-04-09T23:51:40.079Z,70.54
2023-04-09T23:54:08.679Z,70.22
2023-04-09T23:56:37.621Z,70.75
2023-04-09T23:59:07.547Z,69.79
